RJTA(METAR)
10/16 18:00
METAR RJTA 160900Z 32004KT 9999 FEW030 BKN040 17/10 Q1024 RMK 1CU030
7SC040 A3026=
戻る
トップページへ戻る
IMOC Co,.Ltd.